Terminal Aerodrome Forecast
Issued by NWS Indianapolis, IN

Home | Current Version | Previous Version | Text Only | Print | Product List | Glossary On
Versions: 1 2 3 4 5 6 7 8 9 10 11 12 13 14 15 16 17 18 19 20 21 22 23 24 25 26 27 28 29
000
FTUS43 KIND 271400 AAA
TAFIND
TAF AMD
KIND 271416Z 2714/2818 01004KT P6SM SCT025 BKN150
     FM271700 33006KT P6SM SCT025 BKN250
     FM271900 33006KT P6SM VCTS SCT025CB SCT100 BKN250
     FM280000 01007KT P6SM SCT100 BKN250=

USA.gov is the U.S. government's official web portal to all federal, state and local government web resources and services.